createdAt,value
2019-05-01T00:01:51.229Z,32.90
2019-05-01T00:04:41.247Z,40.30
2019-05-01T00:07:24.076Z,41.70
2019-05-01T00:09:56.466Z,44.00
2019-05-01T00:12:29.080Z,42.80
2019-05-01T00:15:02.568Z,44.60
2019-05-01T00:17:35.305Z,48.90
2019-05-01T00:20:08.050Z,47.10
2019-05-01T00:22:40.909Z,48.70
2019-05-01T00:25:13.696Z,50.60
2019-05-01T00:27:46.253Z,49.30
2019-05-01T00:30:29.668Z,48.90
2019-05-01T00:32:54.384Z,49.80
2019-05-01T00:35:27.119Z,49.20
2019-05-01T00:37:59.545Z,48.40
2019-05-01T00:40:31.960Z,48.30
2019-05-01T00:43:04.415Z,49.00
2019-05-01T00:45:37.170Z,50.40
2019-05-01T00:48:09.510Z,51.80
2019-05-01T00:50:41.899Z,51.60
2019-05-01T00:53:14.721Z,53.10
2019-05-01T00:56:04.593Z,51.30
2019-05-01T00:58:44.296Z,51.20
2019-05-01T01:01:34.152Z,51.30
2019-05-01T01:04:06.692Z,52.10
2019-05-01T01:06:39.182Z,52.80
2019-05-01T01:09:11.649Z,54.30
2019-05-01T01:11:44.029Z,54.90
2019-05-01T01:14:16.781Z,54.40
2019-05-01T01:16:49.533Z,53.00
2019-05-01T01:19:21.920Z,54.60
2019-05-01T01:21:55.350Z,54.60
2019-05-01T01:24:28.841Z,55.90
2019-05-01T01:27:01.791Z,54.60
2019-05-01T01:29:34.578Z,55.80
2019-05-01T01:32:07.611Z,57.80
2019-05-01T01:34:40.445Z,58.30
2019-05-01T01:37:13.254Z,58.40
2019-05-01T01:39:46.283Z,58.40
2019-05-01T01:42:18.794Z,58.30
2019-05-01T01:44:52.938Z,58.10
2019-05-01T01:47:25.855Z,58.90
2019-05-01T01:49:59.240Z,60.00
2019-05-01T01:52:32.471Z,59.60
2019-05-01T01:55:06.417Z,58.70
2019-05-01T01:57:39.041Z,59.80
2019-05-01T02:00:12.933Z,59.30
2019-05-01T02:02:47.090Z,59.80
2019-05-01T02:05:21.271Z,60.70
2019-05-01T02:07:54.053Z,61.50
2019-05-01T02:10:26.921Z,60.90
2019-05-01T02:12:59.589Z,60.60
2019-05-01T02:15:32.091Z,61.80
2019-05-01T02:18:04.843Z,62.80
2019-05-01T02:20:37.265Z,62.50
2019-05-01T02:23:09.786Z,63.00
2019-05-01T02:25:43.630Z,63.40
2019-05-01T02:28:30.139Z,65.00
2019-05-01T02:31:07.907Z,65.80
2019-05-01T02:33:44.631Z,65.90
2019-05-01T02:36:18.225Z,65.80
2019-05-01T02:38:52.527Z,66.60
2019-05-01T02:41:26.929Z,67.50
2019-05-01T02:44:01.726Z,67.70
2019-05-01T02:46:36.727Z,68.00
2019-05-01T02:49:11.681Z,69.70
2019-05-01T02:51:45.988Z,67.80
2019-05-01T02:54:20.966Z,68.60
2019-05-01T02:57:00.877Z,66.00
2019-05-01T02:59:34.989Z,67.90
2019-05-01T03:02:07.966Z,66.60
2019-05-01T03:04:41.125Z,68.70
2019-05-01T03:07:14.389Z,66.80
2019-05-01T03:09:47.830Z,66.90
2019-05-01T03:12:22.867Z,67.00
2019-05-01T03:14:58.075Z,68.30
2019-05-01T03:17:49.142Z,67.10
2019-05-01T03:20:26.086Z,67.00
2019-05-01T03:23:16.901Z,69.90
2019-05-01T03:25:50.390Z,67.70
2019-05-01T03:28:24.628Z,69.60
2019-05-01T03:30:57.804Z,68.70
2019-05-01T03:33:30.851Z,70.00
2019-05-01T03:36:03.634Z,71.90
2019-05-01T03:38:36.890Z,72.10
2019-05-01T03:41:10.276Z,72.30
2019-05-01T03:43:43.457Z,72.30
2019-05-01T03:46:16.455Z,72.60
2019-05-01T03:48:52.448Z,73.10
2019-05-01T03:51:25.274Z,73.20
2019-05-01T03:53:57.748Z,73.60
2019-05-01T03:56:30.511Z,73.20
2019-05-01T03:59:03.242Z,73.20
2019-05-01T04:01:53.815Z,72.30
2019-05-01T04:04:31.081Z,73.40
2019-05-01T04:07:03.723Z,73.80
2019-05-01T04:09:37.102Z,73.60
2019-05-01T04:12:09.747Z,73.70
2019-05-01T04:14:43.019Z,74.00
2019-05-01T04:17:23.048Z,73.80
2019-05-01T04:19:56.105Z,74.90
2019-05-01T04:22:28.828Z,74.30
2019-05-01T04:25:01.586Z,74.70
2019-05-01T04:27:35.571Z,74.30
2019-05-01T04:30:10.250Z,74.10
2019-05-01T04:32:52.240Z,74.40
2019-05-01T04:35:18.505Z,74.90
2019-05-01T04:37:51.098Z,75.20
2019-05-01T04:40:24.163Z,75.30
2019-05-01T04:42:57.176Z,75.10
2019-05-01T04:45:30.579Z,76.30
2019-05-01T04:48:03.148Z,77.60
2019-05-01T04:50:35.955Z,77.60
2019-05-01T04:53:08.932Z,77.70
2019-05-01T04:55:41.849Z,77.30
2019-05-01T04:58:14.799Z,78.50
2019-05-01T05:00:47.991Z,78.50
2019-05-01T05:03:22.350Z,77.90
2019-05-01T05:05:55.018Z,77.80
2019-05-01T05:08:27.773Z,78.00
2019-05-01T05:11:02.132Z,78.70
2019-05-01T05:13:36.395Z,79.10
2019-05-01T05:16:10.962Z,79.50
2019-05-01T05:18:43.604Z,79.90
2019-05-01T05:21:16.663Z,80.30
2019-05-01T05:23:49.611Z,79.90
2019-05-01T05:26:22.390Z,80.60
2019-05-01T05:28:55.467Z,81.00
2019-05-01T05:31:29.386Z,81.00
2019-05-01T05:34:04.522Z,81.40
2019-05-01T05:36:39.094Z,81.80
2019-05-01T05:40:48.686Z,81.20
2019-05-01T05:43:22.109Z,81.40
2019-05-01T05:45:54.529Z,82.80
2019-05-01T05:48:27.190Z,82.80
2019-05-01T05:51:18.660Z,83.70
2019-05-01T05:53:54.014Z,84.10
2019-05-01T05:56:29.346Z,84.30
2019-05-01T05:59:21.350Z,84.50
2019-05-01T06:02:03.225Z,85.20
2019-05-01T06:04:42.740Z,85.20
2019-05-01T06:07:19.003Z,85.60
2019-05-01T06:10:10.542Z,85.90
2019-05-01T06:13:02.212Z,86.20
2019-05-01T06:15:41.191Z,86.50
2019-05-01T06:18:14.363Z,86.70
2019-05-01T06:20:51.952Z,86.80
2019-05-01T06:23:30.832Z,87.00
2019-05-01T06:26:23.169Z,86.20
2019-05-01T06:29:00.556Z,86.40
2019-05-01T06:31:29.881Z,87.00
2019-05-01T06:34:02.838Z,86.70
2019-05-01T06:36:35.910Z,87.50
2019-05-01T06:39:12.035Z,87.30
2019-05-01T06:41:44.550Z,87.90
2019-05-01T06:44:22.874Z,87.60
2019-05-01T06:47:03.261Z,87.10
2019-05-01T06:49:39.722Z,86.80
2019-05-01T06:52:13.755Z,86.60
2019-05-01T06:54:47.696Z,86.50
2019-05-01T06:57:21.086Z,87.00
2019-05-01T06:59:53.797Z,87.10
2019-05-01T07:02:29.767Z,87.70
2019-05-01T07:05:03.232Z,87.90
2019-05-01T07:07:36.347Z,88.00
2019-05-01T07:10:08.921Z,88.40
2019-05-01T07:12:42.010Z,88.20
2019-05-01T07:15:14.886Z,88.70
2019-05-01T07:17:48.998Z,88.80
2019-05-01T07:20:25.478Z,89.30
2019-05-01T07:22:57.234Z,89.20
2019-05-01T07:25:29.578Z,89.40
2019-05-01T07:28:02.061Z,89.10
2019-05-01T07:30:41.801Z,89.50
2019-05-01T07:33:16.618Z,89.70
2019-05-01T07:35:48.653Z,90.00
2019-05-01T07:38:22.141Z,90.10
2019-05-01T07:40:58.799Z,90.20
2019-05-01T07:43:34.245Z,90.70
2019-05-01T07:46:08.538Z,90.40
2019-05-01T07:48:43.371Z,90.30
2019-05-01T07:51:16.484Z,90.30
2019-05-01T07:53:49.288Z,90.50
2019-05-01T07:56:22.928Z,90.80
2019-05-01T07:58:56.137Z,90.60
2019-05-01T08:01:49.862Z,90.40
2019-05-01T08:04:35.329Z,90.50
2019-05-01T08:06:57.104Z,90.70
2019-05-01T08:09:29.827Z,90.90
2019-05-01T08:12:02.258Z,90.70
2019-05-01T08:14:34.701Z,90.50
2019-05-01T08:17:07.140Z,90.60
2019-05-01T08:19:49.609Z,90.40
2019-05-01T08:22:23.332Z,90.30
2019-05-01T08:24:58.859Z,90.70
2019-05-01T08:27:51.084Z,90.70
2019-05-01T08:30:25.745Z,90.70
2019-05-01T08:33:09.775Z,91.10
2019-05-01T08:35:41.923Z,91.00
2019-05-01T08:38:14.282Z,91.40
2019-05-01T08:40:50.821Z,91.50
2019-05-01T08:43:21.172Z,91.50
2019-05-01T08:46:11.784Z,91.80
2019-05-01T08:48:52.405Z,92.00
2019-05-01T08:51:24.915Z,92.10
2019-05-01T08:53:57.896Z,92.00
2019-05-01T08:56:31.274Z,92.10
2019-05-01T08:59:03.697Z,92.20
2019-05-01T09:01:36.455Z,92.80
2019-05-01T09:04:13.063Z,92.80
2019-05-01T09:06:43.772Z,92.50
2019-05-01T09:09:16.974Z,92.10
2019-05-01T09:11:49.438Z,93.00
2019-05-01T09:14:21.754Z,92.60
2019-05-01T09:16:54.162Z,92.80
2019-05-01T09:19:26.609Z,92.80
2019-05-01T09:21:59.979Z,92.70
2019-05-01T09:24:32.424Z,92.90
2019-05-01T09:27:12.228Z,92.80
2019-05-01T09:29:46.948Z,92.80
2019-05-01T09:32:19.839Z,92.90
2019-05-01T09:34:52.253Z,92.80
2019-05-01T09:37:24.770Z,92.40
2019-05-01T09:39:57.090Z,92.50
2019-05-01T09:42:30.589Z,93.30
2019-05-01T09:45:03.022Z,92.90
2019-05-01T09:47:35.826Z,93.60
2019-05-01T09:50:09.811Z,93.90
2019-05-01T09:52:43.633Z,93.50
2019-05-01T09:55:17.955Z,93.20
2019-05-01T09:57:51.265Z,93.20
2019-05-01T10:00:25.491Z,93.00
2019-05-01T10:02:58.191Z,93.00
2019-05-01T10:05:30.509Z,93.50
2019-05-01T10:08:04.072Z,93.70
2019-05-01T10:10:37.125Z,93.40
2019-05-01T10:13:09.542Z,93.80
2019-05-01T10:15:41.877Z,93.40
2019-05-01T10:18:15.850Z,93.00
2019-05-01T10:20:48.529Z,93.30
2019-05-01T10:23:21.213Z,93.40
2019-05-01T10:25:54.922Z,93.30
2019-05-01T10:28:31.344Z,93.50
2019-05-01T10:31:07.012Z,94.00
2019-05-01T10:33:40.178Z,93.70
2019-05-01T10:36:18.815Z,94.20
2019-05-01T10:38:50.434Z,93.70
2019-05-01T10:41:22.782Z,93.40
2019-05-01T10:43:55.143Z,94.00
2019-05-01T10:46:27.472Z,93.60
2019-05-01T10:48:59.870Z,93.90
2019-05-01T10:51:32.305Z,94.00
2019-05-01T10:54:04.704Z,94.20
2019-05-01T10:56:38.059Z,94.20
2019-05-01T10:59:10.621Z,94.30
2019-05-01T11:01:44.351Z,94.30
2019-05-01T11:04:17.009Z,94.00
2019-05-01T11:06:49.328Z,94.40
2019-05-01T11:09:21.923Z,93.80
2019-05-01T11:11:54.361Z,93.60
2019-05-01T11:14:26.708Z,93.70
2019-05-01T11:16:59.021Z,93.50
2019-05-01T11:19:31.471Z,94.20
2019-05-01T11:22:03.796Z,94.30
2019-05-01T11:24:36.344Z,94.40
2019-05-01T11:27:08.461Z,94.30
2019-05-01T11:29:40.980Z,94.40
2019-05-01T11:32:15.027Z,94.40
2019-05-01T11:34:57.350Z,94.20
2019-05-01T11:37:42.525Z,94.80
2019-05-01T11:40:22.527Z,95.10
2019-05-01T11:42:54.685Z,95.10
2019-05-01T11:45:26.901Z,94.80
2019-05-01T11:47:59.129Z,94.80
2019-05-01T11:50:31.300Z,95.10
2019-05-01T11:53:03.450Z,95.10
2019-05-01T11:55:35.620Z,95.10
2019-05-01T11:58:07.870Z,95.00
2019-05-01T12:00:40.336Z,95.10
2019-05-01T12:03:12.466Z,94.90
2019-05-01T12:05:44.826Z,94.70
2019-05-01T12:08:17.495Z,94.70
2019-05-01T12:10:49.972Z,95.40
2019-05-01T12:13:22.370Z,95.40
2019-05-01T12:15:58.878Z,95.50
2019-05-01T12:18:31.223Z,95.90
2019-05-01T12:21:03.580Z,95.60
2019-05-01T12:23:35.990Z,95.50
2019-05-01T12:26:08.359Z,95.60
2019-05-01T12:28:40.501Z,95.30
2019-05-01T12:31:13.048Z,95.40
2019-05-01T12:33:45.396Z,95.30
2019-05-01T12:36:17.760Z,95.80
2019-05-01T12:38:50.059Z,95.50
2019-05-01T12:41:26.814Z,95.70
2019-05-01T12:43:59.127Z,95.60
2019-05-01T12:46:50.502Z,95.60
2019-05-01T12:49:22.820Z,95.90
2019-05-01T12:52:09.631Z,96.00
2019-05-01T12:54:51.951Z,96.10
2019-05-01T12:57:24.018Z,96.10
2019-05-01T13:00:08.106Z,96.00
2019-05-01T13:02:30.495Z,96.40
2019-05-01T13:05:02.823Z,96.00
2019-05-01T13:07:35.555Z,96.30
2019-05-01T13:10:08.367Z,95.60
2019-05-01T13:12:41.170Z,96.20
2019-05-01T13:15:13.744Z,95.80
2019-05-01T13:17:46.105Z,96.70
2019-05-01T13:20:18.465Z,96.60
2019-05-01T13:22:50.888Z,96.30
2019-05-01T13:25:23.377Z,95.90
2019-05-01T13:28:12.995Z,96.20
2019-05-01T13:30:52.927Z,95.90
2019-05-01T13:33:25.443Z,95.80
2019-05-01T13:36:00.048Z,95.70
2019-05-01T13:38:32.462Z,96.20
2019-05-01T13:41:05.139Z,96.20
2019-05-01T13:43:37.591Z,96.10
2019-05-01T13:46:09.943Z,96.30
2019-05-01T13:48:42.418Z,96.10
2019-05-01T13:51:14.829Z,96.20
2019-05-01T13:53:47.212Z,96.20
2019-05-01T13:56:19.624Z,96.10
2019-05-01T13:58:51.971Z,95.90
2019-05-01T14:01:25.069Z,95.60
2019-05-01T14:03:57.618Z,95.80
2019-05-01T14:06:29.945Z,96.00
2019-05-01T14:09:03.130Z,94.50
2019-05-01T14:11:36.768Z,95.70
2019-05-01T14:14:09.397Z,95.10
2019-05-01T14:16:41.720Z,95.20
2019-05-01T14:19:14.104Z,95.00
2019-05-01T14:21:51.285Z,94.60
2019-05-01T14:24:28.414Z,94.80
2019-05-01T14:27:00.648Z,94.70
2019-05-01T14:29:33.110Z,94.60
2019-05-01T14:32:05.526Z,93.20
2019-05-01T14:34:38.074Z,94.20
2019-05-01T14:37:10.269Z,93.50
2019-05-01T14:39:42.633Z,93.50
2019-05-01T14:42:15.032Z,94.00
2019-05-01T14:44:47.527Z,93.30
2019-05-01T14:47:20.180Z,93.80
2019-05-01T14:49:52.610Z,93.60
2019-05-01T14:52:25.039Z,92.90
2019-05-01T14:54:59.629Z,92.60
2019-05-01T14:57:32.108Z,92.80
2019-05-01T15:00:09.537Z,92.40
2019-05-01T15:02:42.000Z,92.40
2019-05-01T15:05:14.322Z,92.10
2019-05-01T15:07:46.476Z,91.80
2019-05-01T15:10:18.941Z,91.70
2019-05-01T15:12:52.772Z,92.00
2019-05-01T15:15:39.020Z,91.80
2019-05-01T15:18:18.778Z,91.30
2019-05-01T15:20:51.386Z,91.00
2019-05-01T15:23:24.370Z,91.40
2019-05-01T15:25:56.825Z,90.40
2019-05-01T15:28:29.174Z,90.00
2019-05-01T15:31:01.679Z,90.00
2019-05-01T15:33:33.920Z,89.90
2019-05-01T15:36:07.037Z,88.60
2019-05-01T15:38:39.801Z,90.30
2019-05-01T15:41:13.551Z,89.60
2019-05-01T15:43:56.319Z,87.90
2019-05-01T15:46:28.713Z,86.90
2019-05-01T15:49:01.153Z,86.40
2019-05-01T15:51:33.612Z,85.40
2019-05-01T15:54:05.761Z,85.50
2019-05-01T15:56:38.402Z,84.90
2019-05-01T15:59:10.621Z,84.30
2019-05-01T16:01:42.944Z,84.70
2019-05-01T16:04:15.254Z,82.30
2019-05-01T16:06:47.781Z,82.90
2019-05-01T16:09:20.662Z,82.30
2019-05-01T16:12:12.518Z,81.50
2019-05-01T16:14:45.683Z,80.50
2019-05-01T16:17:18.132Z,79.30
2019-05-01T16:19:50.465Z,78.60
2019-05-01T16:22:23.047Z,77.50
2019-05-01T16:24:55.758Z,77.30
2019-05-01T16:27:28.172Z,76.10
2019-05-01T16:30:00.689Z,74.10
2019-05-01T16:32:33.310Z,73.50
2019-05-01T16:35:06.653Z,72.30
2019-05-01T16:37:40.374Z,74.80
2019-05-01T16:40:23.809Z,73.60
2019-05-01T16:42:56.295Z,73.50
2019-05-01T16:45:28.769Z,74.40
2019-05-01T16:48:01.259Z,72.00
2019-05-01T16:50:33.827Z,70.20
2019-05-01T16:53:06.437Z,69.60
2019-05-01T16:55:38.774Z,67.90
2019-05-01T16:58:12.551Z,68.20
2019-05-01T17:00:59.721Z,68.80
2019-05-01T17:03:33.913Z,66.50
2019-05-01T17:06:23.756Z,67.30
2019-05-01T17:09:09.508Z,66.20
2019-05-01T17:11:41.946Z,67.60
2019-05-01T17:14:14.607Z,64.40
2019-05-01T17:16:49.277Z,62.70
2019-05-01T17:19:24.345Z,61.30
2019-05-01T17:21:56.838Z,61.20
2019-05-01T17:24:29.225Z,59.50
2019-05-01T17:27:01.910Z,63.10
2019-05-01T17:29:34.542Z,63.60
2019-05-01T17:32:07.728Z,63.50
2019-05-01T17:34:40.119Z,61.40
2019-05-01T17:37:13.051Z,59.30
2019-05-01T17:39:45.769Z,60.90
2019-05-01T17:42:19.159Z,60.70
2019-05-01T17:44:55.837Z,58.40
2019-05-01T17:47:27.017Z,58.90
2019-05-01T17:50:00.007Z,58.60
2019-05-01T17:52:32.606Z,58.00
2019-05-01T17:55:06.270Z,56.80
2019-05-01T17:57:38.616Z,56.70
2019-05-01T18:00:18.763Z,57.90
2019-05-01T18:03:08.171Z,56.10
2019-05-01T18:05:46.193Z,56.30
2019-05-01T18:08:19.080Z,56.80
2019-05-01T18:10:51.930Z,54.20
2019-05-01T18:13:24.480Z,53.70
2019-05-01T18:15:57.255Z,53.30
2019-05-01T18:18:30.047Z,54.50
2019-05-01T18:21:02.990Z,51.90
2019-05-01T18:23:53.192Z,52.10
2019-05-01T18:26:27.301Z,52.10
2019-05-01T18:29:05.720Z,51.90
2019-05-01T18:31:37.878Z,50.30
2019-05-01T18:34:10.638Z,50.10
2019-05-01T18:36:55.009Z,51.40
2019-05-01T18:39:31.228Z,49.50
2019-05-01T18:42:12.114Z,50.80
2019-05-01T18:44:47.556Z,49.30
2019-05-01T18:47:18.774Z,49.80
2019-05-01T18:49:51.146Z,48.50
2019-05-01T18:52:23.841Z,47.80
2019-05-01T18:54:56.187Z,48.40
2019-05-01T18:57:28.660Z,46.70
2019-05-01T19:00:01.125Z,46.80
2019-05-01T19:02:34.079Z,43.80
2019-05-01T19:05:08.782Z,44.00
2019-05-01T19:07:42.059Z,44.80
2019-05-01T19:10:14.637Z,44.20
2019-05-01T19:12:47.238Z,43.40
2019-05-01T19:15:20.238Z,42.70
2019-05-01T19:17:53.274Z,40.30
2019-05-01T19:20:26.240Z,37.30
2019-05-01T19:22:59.393Z,33.80
2019-05-01T19:25:31.739Z,32.10
2019-05-01T19:28:05.761Z,30.40
2019-05-01T19:30:38.310Z,28.10
2019-05-01T19:33:10.907Z,28.10
2019-05-01T19:35:43.296Z,29.00
2019-05-01T19:38:16.821Z,28.60
2019-05-01T19:40:49.494Z,27.50
2019-05-01T19:43:22.208Z,27.40
2019-05-01T19:45:54.914Z,27.20
2019-05-01T19:48:27.312Z,25.50
2019-05-01T19:51:00.015Z,25.40
2019-05-01T19:53:32.636Z,26.10
2019-05-01T19:56:05.299Z,26.20
2019-05-01T19:58:37.873Z,25.20
2019-05-01T20:01:10.395Z,24.40
2019-05-01T20:03:43.204Z,24.10
2019-05-01T20:06:15.833Z,24.90
2019-05-01T20:08:48.314Z,22.70
2019-05-01T20:11:20.794Z,22.90
2019-05-01T20:13:53.598Z,23.00
2019-05-01T20:16:26.283Z,23.60
2019-05-01T20:18:59.048Z,24.70
2019-05-01T20:21:31.585Z,25.30
2019-05-01T20:24:08.996Z,23.90
2019-05-01T20:26:38.213Z,23.90
2019-05-01T20:29:10.908Z,23.30
2019-05-01T20:31:45.716Z,22.10
2019-05-01T20:34:18.770Z,21.80
2019-05-01T20:36:51.355Z,21.70
2019-05-01T20:39:24.053Z,21.10
2019-05-01T20:41:56.621Z,20.30
2019-05-01T20:44:29.258Z,21.10
2019-05-01T20:47:02.563Z,21.30
2019-05-01T20:49:36.436Z,20.60
2019-05-01T20:52:09.463Z,21.20
2019-05-01T20:54:41.929Z,22.60
2019-05-01T20:57:20.979Z,21.30
2019-05-01T20:59:52.418Z,21.10
2019-05-01T21:02:25.984Z,20.70
2019-05-01T21:05:11.728Z,20.20
2019-05-01T21:07:45.650Z,21.10
2019-05-01T21:10:24.888Z,21.60
2019-05-01T21:12:53.512Z,20.90
2019-05-01T21:15:26.791Z,19.10
2019-05-01T21:17:59.348Z,20.30
2019-05-01T21:20:33.795Z,21.40
2019-05-01T21:23:10.468Z,21.90
2019-05-01T21:25:40.257Z,20.20
2019-05-01T21:28:14.215Z,19.80
2019-05-01T21:30:48.187Z,19.90
2019-05-01T21:33:23.637Z,20.10
2019-05-01T21:35:59.433Z,19.80
2019-05-01T21:38:29.336Z,20.00
2019-05-01T21:41:02.737Z,19.60
2019-05-01T21:43:37.149Z,18.70
2019-05-01T21:46:09.549Z,17.50
2019-05-01T21:48:43.513Z,19.20
2019-05-01T21:51:18.625Z,18.90
2019-05-01T21:53:52.756Z,18.10
2019-05-01T21:56:25.002Z,18.20
2019-05-01T21:58:59.479Z,18.10
2019-05-01T22:01:34.931Z,18.20
2019-05-01T22:04:06.411Z,17.60
2019-05-01T22:06:39.489Z,16.80
2019-05-01T22:09:15.185Z,15.10
2019-05-01T22:11:47.723Z,15.40
2019-05-01T22:14:31.068Z,16.10
2019-05-01T22:17:02.252Z,16.50
2019-05-01T22:19:34.990Z,16.20
2019-05-01T22:22:15.567Z,17.30
2019-05-01T22:25:04.028Z,17.20
2019-05-01T22:27:39.280Z,15.90
2019-05-01T22:30:25.407Z,15.50
2019-05-01T22:32:59.457Z,15.10
2019-05-01T22:35:33.366Z,14.50
2019-05-01T22:38:07.325Z,16.20
2019-05-01T22:41:05.469Z,16.70
2019-05-01T22:43:27.276Z,15.30
2019-05-01T22:46:01.698Z,16.90
2019-05-01T22:48:34.211Z,15.70
2019-05-01T22:51:20.738Z,17.60
2019-05-01T22:53:55.965Z,17.90
2019-05-01T22:56:28.413Z,15.90
2019-05-01T22:59:01.785Z,15.20
2019-05-01T23:01:34.255Z,15.20
2019-05-01T23:04:07.553Z,19.50
2019-05-01T23:06:41.784Z,16.90
2019-05-01T23:09:15.910Z,16.60
2019-05-01T23:11:48.855Z,18.00
2019-05-01T23:14:21.843Z,18.60
2019-05-01T23:16:58.691Z,18.10
2019-05-01T23:19:30.735Z,20.40
2019-05-01T23:22:03.129Z,21.00
2019-05-01T23:24:35.871Z,22.40
2019-05-01T23:27:08.333Z,21.80
2019-05-01T23:29:41.079Z,22.60
2019-05-01T23:32:13.550Z,22.90
2019-05-01T23:34:46.029Z,22.80
2019-05-01T23:37:18.497Z,21.70
2019-05-01T23:39:50.886Z,23.20
2019-05-01T23:42:23.242Z,23.40
2019-05-01T23:44:55.624Z,23.40
2019-05-01T23:47:28.029Z,26.60
2019-05-01T23:50:01.109Z,27.20
2019-05-01T23:52:33.925Z,29.60
2019-05-01T23:55:08.599Z,36.20
2019-05-01T23:57:40.951Z,34.60
